Time;durP1;ratioP1;P1;durP2;ratioP2;P2;SDS_P1;SDS_P2;PMS_P1;PMS_P2;Temp;Humidity;BMP_temperature;BMP_pressure;BME280_temperature;BME280_humidity;BME280_pressure;Samples;Min_cycle;Max_cycle;Signal;HPM_P1;HPM_P2
2023/10/06 04:15:14;;;;;;;20.35;7.72;;;;;;;11.15;84.87;98323.81;4891484;29;20044;-91
2023/10/06 04:26:56;;;;;;;20.50;7.63;;;;;;;10.82;84.88;98269.19;4917798;29;20056;-94
2023/10/06 04:29:34;;;;;;;17.25;7.50;;;;;;;10.84;85.20;98266.94;4868478;29;20029;-93
2023/10/06 04:32:04;;;;;;;23.50;8.27;;;;;;;10.82;85.09;98256.31;4881003;29;20052;-89
2023/10/06 13:04:00;;;;;;;3.08;1.80;;;;;;;12.08;77.73;98131.44;5854052;23;20063;-91
2023/10/06 13:11:03;;;;;;;5.88;2.83;;;;;;;11.69;77.11;98087.38;4878725;29;20114;-91
2023/10/06 13:39:25;;;;;;;4.07;1.30;;;;;;;10.27;79.54;98183.84;1581805;23;20019;-87
2023/10/06 13:49:18;;;;;;;2.33;1.40;;;;;;;10.12;81.53;98207.09;4807411;29;20127;-90
2023/10/06 13:56:53;;;;;;;1.35;1.20;;;;;;;10.31;79.63;98268.66;4834087;29;20081;-91
2023/10/06 13:59:22;;;;;;;;;;;;;;;10.40;80.07;98269.38;4860604;29;20044;-91
2023/10/06 14:05:07;;;;;;;2.08;1.05;;;;;;;10.25;78.11;98291.81;5324789;23;20061;-92
2023/10/06 14:08:03;;;;;;;2.30;1.30;;;;;;;10.31;78.24;98291.28;4899416;29;20053;-89
2023/10/06 15:09:19;;;;;;;9.95;1.45;;;;;;;9.43;73.88;98452.41;4831926;29;20119;-88
2023/10/06 15:12:27;;;;;;;1.75;1.10;;;;;;;9.42;74.51;98443.44;4953474;29;20052;-87
2023/10/06 15:15:01;;;;;;;6.28;1.20;;;;;;;9.39;73.94;98458.50;4879404;29;20088;-90
2023/10/06 15:33:39;;;;;;;9.85;4.15;;;;;;;8.43;74.53;98427.88;4892324;29;20054;-86
2023/10/06 15:40:34;;;;;;;2.73;1.40;;;;;;;8.62;72.20;98528.34;4840819;29;20127;-91
2023/10/06 15:52:15;;;;;;;29.27;2.55;;;;;;;8.13;70.11;98568.41;4808963;29;20070;-88
2023/10/06 15:56:19;;;;;;;35.50;1.75;;;;;;;7.91;66.79;98580.19;4796754;30;20050;-89
2023/10/06 16:14:50;;;;;;;8.98;1.13;;;;;;;7.51;67.56;98625.56;5230376;23;19953;-86
2023/10/06 16:33:20;;;;;;;2.10;1.13;;;;;;;7.40;64.54;98644.03;4894897;29;20110;-88
2023/10/06 16:53:38;;;;;;;5.47;1.70;;;;;;;7.47;67.78;98696.06;4895788;29;20057;-88
2023/10/06 16:56:47;;;;;;;11.90;2.10;;;;;;;7.50;68.16;98706.34;4878352;29;20056;-89
2023/10/06 16:59:14;;;;;;;2.83;1.30;;;;;;;7.14;66.73;98660.13;4844424;29;20577;-85
2023/10/06 17:04:39;;;;;;;4.00;1.67;;;;;;;7.40;68.15;98711.22;5819735;23;20060;-87
2023/10/06 17:07:32;;;;;;;2.13;1.30;;;;;;;7.58;68.75;98729.25;4963095;23;20076;-81
2023/10/06 17:10:01;;;;;;;2.95;1.15;;;;;;;7.43;68.28;98694.28;4901835;29;20048;-85
2023/10/06 17:12:30;;;;;;;2.25;1.30;;;;;;;7.36;66.55;98713.75;4914504;29;20076;-82
2023/10/06 17:14:59;;;;;;;6.88;1.33;;;;;;;7.02;66.83;98719.66;5449767;23;20131;-80
2023/10/06 17:17:52;;;;;;;2.00;1.10;;;;;;;6.90;67.27;98694.91;4897911;29;20049;-81
2023/10/06 17:20:25;;;;;;;3.15;1.20;;;;;;;7.15;68.05;98720.72;4919733;29;20107;-81
2023/10/06 17:23:14;;;;;;;4.65;1.30;;;;;;;7.26;68.82;98752.03;4901236;29;20053;-83
2023/10/06 17:26:14;;;;;;;1.83;1.30;;;;;;;7.12;69.64;98745.78;4916939;29;20064;-81
2023/10/06 17:28:41;;;;;;;1.80;1.30;;;;;;;6.99;69.00;98712.91;4893673;29;20084;-80
2023/10/06 17:35:20;;;;;;;3.60;1.25;;;;;;;6.99;68.96;98750.16;4937592;29;20540;-82
2023/10/06 17:37:51;;;;;;;3.15;1.30;;;;;;;7.07;70.56;98760.28;4918843;29;20080;-82
2023/10/06 17:40:41;;;;;;;;;;;;;;;;;;;;;
2023/10/06 17:46:38;;;;;;;1.85;1.50;;;;;;;6.25;71.73;98685.03;4920325;29;20049;-81
2023/10/06 17:52:51;;;;;;;3.63;1.83;;;;;;;6.51;72.60;98696.22;4941106;29;20030;-82
2023/10/06 17:55:22;;;;;;;11.10;1.80;;;;;;;6.88;72.54;98775.91;4936811;29;20053;-84
2023/10/06 17:58:11;;;;;;;3.90;1.60;;;;;;;6.91;70.76;98792.41;4894208;29;20052;-83
2023/10/06 19:02:47;;;;;;;1.38;1.17;;;;;;;6.41;63.46;98830.25;4914011;29;20082;-85
2023/10/06 19:05:14;;;;;;;6.05;1.52;;;;;;;6.50;62.60;98824.94;4941718;23;20072;-86
2023/10/06 20:02:05;;;;;;;4.78;1.70;;;;;;;6.49;59.03;98845.03;5517492;23;20553;-87
2023/10/06 20:40:53;;;;;;;6.43;1.48;;;;;;;5.96;63.61;98850.75;5026076;23;20036;-95
2023/10/06 20:47:31;;;;;;;2.65;1.55;;;;;;;5.40;63.72;98807.03;5216701;23;20071;-93
2023/10/06 20:50:07;;;;;;;5.00;1.38;;;;;;;5.23;64.83;98797.75;4871759;29;20025;-95
2023/10/06 20:52:51;;;;;;;5.85;1.15;;;;;;;5.04;63.21;98782.28;4882719;29;20095;-92
2023/10/06 20:55:25;;;;;;;3.05;1.33;;;;;;;5.73;64.34;98883.06;5250416;23;20003;-93
2023/10/06 20:57:58;;;;;;;2.83;1.27;;;;;;;5.26;64.03;98833.22;4863698;29;20065;-93
2023/10/06 21:00:48;;;;;;;5.78;1.70;;;;;;;5.19;65.28;98825.44;4904506;29;20059;-94
2023/10/06 21:03:25;;;;;;;3.88;1.55;;;;;;;5.17;64.78;98821.44;4913552;29;20118;-94
2023/10/06 21:05:56;;;;;;;3.15;1.60;;;;;;;4.84;65.51;98783.34;4857291;29;20053;-92
2023/10/06 21:08:23;;;;;;;1.90;1.40;;;;;;;4.77;65.79;98777.47;4869071;29;20052;-92
2023/10/06 21:11:03;;;;;;;5.88;1.67;;;;;;;5.28;66.11;98865.47;4882768;29;20292;-93
2023/10/06 21:13:35;;;;;;;2.45;1.58;;;;;;;4.86;65.48;98805.50;4895958;29;20040;-95
2023/10/06 21:16:29;;;;;;;5.70;1.60;;;;;;;4.77;66.07;98804.53;4849369;29;20053;-90
2023/10/06 21:27:26;;;;;;;3.42;1.35;;;;;;;4.96;66.47;98853.34;4900508;29;20084;-93
2023/10/06 21:30:27;;;;;;;2.13;1.27;;;;;;;4.83;65.70;98835.06;4887734;29;20035;-90
2023/10/06 21:33:00;;;;;;;5.95;1.70;;;;;;;5.15;66.11;98889.44;4898862;29;20211;-93
2023/10/06 21:35:48;;;;;;;2.58;1.40;;;;;;;4.97;66.61;98849.56;4891770;29;20091;-94
2023/10/06 21:38:25;;;;;;;3.03;1.58;;;;;;;4.85;66.78;98846.44;4879017;29;20065;-95
2023/10/06 21:40:59;;;;;;;2.83;1.50;;;;;;;4.64;66.22;98811.44;4867682;29;20053;-93
2023/10/06 21:43:27;;;;;;;2.60;1.42;;;;;;;4.75;66.73;98833.78;4844597;29;20094;-94
2023/10/06 21:45:56;;;;;;;3.25;1.55;;;;;;;4.75;66.79;98850.03;4845048;29;20043;-95
2023/10/06 21:48:41;;;;;;;2.72;1.35;;;;;;;5.02;67.77;98882.00;4839356;29;20050;-95
2023/10/06 21:51:07;;;;;;;3.92;1.65;;;;;;;4.76;66.67;98818.34;4842463;29;20031;-92
2023/10/06 21:53:35;;;;;;;6.43;1.50;;;;;;;5.08;66.39;98877.34;4837436;29;20077;-93
2023/10/06 21:56:11;;;;;;;4.15;1.50;;;;;;;5.03;65.58;98869.25;4837420;29;20049;-93
2023/10/06 21:58:41;;;;;;;5.10;1.40;;;;;;;4.58;65.66;98792.84;4850491;29;20065;-92
2023/10/06 22:01:13;;;;;;;8.30;1.80;;;;;;;5.30;66.60;98923.72;4846826;29;20053;-92
2023/10/06 22:03:42;;;;;;;1.58;1.05;;;;;;;4.89;66.51;98871.84;4830776;29;20080;-93
2023/10/06 22:06:19;;;;;;;4.25;1.77;;;;;;;5.05;66.85;98891.47;4842813;29;20034;-90
2023/10/06 22:09:06;;;;;;;1.65;1.33;;;;;;;4.83;66.86;98873.78;4849448;29;20045;-92
2023/10/06 22:11:44;;;;;;;4.40;1.70;;;;;;;5.27;65.93;98935.13;4826313;29;20056;-93
2023/10/06 22:14:20;;;;;;;5.80;1.23;;;;;;;4.86;66.72;98873.22;4839167;29;20063;-93
2023/10/06 22:16:47;;;;;;;3.03;1.42;;;;;;;5.32;66.31;98943.19;4796084;29;20050;-94
2023/10/06 22:19:14;;;;;;;6.03;1.47;;;;;;;5.28;65.53;98941.34;4825027;29;20044;-92
2023/10/06 22:21:44;;;;;;;2.78;1.50;;;;;;;4.60;65.12;98836.66;4856890;29;20085;-94
2023/10/06 22:24:12;;;;;;;5.78;1.60;;;;;;;4.87;65.80;98904.63;4835169;29;20060;-94
2023/10/06 22:27:13;;;;;;;4.80;1.42;;;;;;;4.77;66.01;98877.66;4848097;29;20045;-93
2023/10/06 22:29:43;;;;;;;11.68;1.90;;;;;;;4.75;65.26;98871.72;4814012;29;20053;-93
2023/10/06 22:32:22;;;;;;;3.53;1.42;;;;;;;4.97;65.83;98892.91;4843256;29;20065;-92
2023/10/06 22:34:53;;;;;;;2.80;1.20;;;;;;;4.69;66.32;98854.69;4845010;29;20030;-93
2023/10/06 22:37:20;;;;;;;2.95;1.45;;;;;;;4.83;66.02;98881.09;4830650;29;20068;-93
2023/10/06 22:39:49;;;;;;;5.18;1.60;;;;;;;4.77;66.80;98869.53;4859588;29;20149;-93
2023/10/06 22:42:15;;;;;;;2.05;1.20;;;;;;;4.57;66.39;98848.03;4830963;29;20034;-93
2023/10/06 22:45:03;;;;;;;4.90;1.30;;;;;;;4.72;67.15;98880.41;4830111;29;20190;-93
2023/10/06 22:47:30;;;;;;;2.90;1.20;;;;;;;5.10;67.10;98943.69;4824687;29;20082;-93
2023/10/06 22:49:57;;;;;;;2.95;1.38;;;;;;;4.73;67.05;98898.25;4859806;29;20145;-92
2023/10/06 22:52:26;;;;;;;2.72;1.55;;;;;;;5.00;66.68;98954.63;4864575;29;20036;-93
2023/10/06 22:55:11;;;;;;;3.42;1.42;;;;;;;5.03;67.58;98954.03;4851230;29;20052;-94
2023/10/06 22:57:38;;;;;;;4.22;1.35;;;;;;;4.54;66.42;98879.22;4869455;29;20028;-94
2023/10/06 23:00:10;;;;;;;4.72;1.88;;;;;;;4.78;67.28;98922.59;4881138;29;20049;-93
2023/10/06 23:02:37;;;;;;;3.95;1.70;;;;;;;4.87;66.97;98942.56;4832281;29;20030;-93
2023/10/06 23:05:05;;;;;;;;;;;;;;;4.90;67.23;98941.97;4830680;29;20094;-93
2023/10/06 23:07:32;;;;;;;1.98;1.25;;;;;;;4.54;67.42;98891.94;4848932;29;19983;-93
2023/10/06 23:10:00;;;;;;;3.47;1.60;;;;;;;4.35;68.41;98884.50;4838859;29;20041;-92
2023/10/06 23:12:30;;;;;;;6.45;1.80;;;;;;;4.40;67.63;98887.19;4862057;29;20144;-94
2023/10/06 23:14:56;;;;;;;3.35;1.80;;;;;;;4.62;68.35;98910.25;4867892;29;20105;-94
2023/10/06 23:17:23;;;;;;;2.42;1.42;;;;;;;4.32;68.21;98873.44;4861855;29;20036;-94
2023/10/06 23:19:55;;;;;;;5.10;1.20;;;;;;;4.46;68.56;98902.25;4862576;29;20062;-93
2023/10/06 23:22:43;;;;;;;5.78;2.00;;;;;;;4.22;69.02;98860.78;4886200;29;20031;-93
2023/10/06 23:25:12;;;;;;;4.03;1.77;;;;;;;4.57;68.84;98907.59;4854957;29;20083;-92
2023/10/06 23:27:39;;;;;;;4.57;2.10;;;;;;;4.09;69.45;98837.09;4868523;29;20055;-93
2023/10/06 23:30:09;;;;;;;2.97;1.27;;;;;;;4.13;69.57;98862.47;4869066;29;20048;-92
2023/10/06 23:32:39;;;;;;;6.43;2.05;;;;;;;4.36;69.71;98885.31;4866786;29;20040;-93
2023/10/06 23:35:08;;;;;;;7.97;1.77;;;;;;;4.61;69.50;98925.72;4886101;29;20052;-93
2023/10/06 23:37:37;;;;;;;2.67;1.35;;;;;;;4.58;68.74;98911.94;4884948;29;20049;-93
2023/10/06 23:40:12;;;;;;;4.50;1.98;;;;;;;4.22;69.41;98855.38;4872865;29;20025;-93
2023/10/06 23:42:52;;;;;;;2.70;1.60;;;;;;;4.35;69.20;98886.41;4891499;29;20579;-93
2023/10/06 23:45:28;;;;;;;3.58;1.60;;;;;;;3.85;69.23;98797.25;4885787;29;20127;-94
2023/10/06 23:47:55;;;;;;;;;;;;;;;4.56;69.56;98916.81;4915953;23;20068;-94
2023/10/06 23:50:21;;;;;;;2.75;1.35;;;;;;;4.23;69.78;98867.81;4882677;29;19928;-94
2023/10/06 23:52:51;;;;;;;6.38;1.52;;;;;;;3.92;69.23;98805.84;4890358;29;20093;-94
2023/10/06 23:55:21;;;;;;;8.07;1.70;;;;;;;4.09;69.22;98828.97;4891282;29;20179;-93
2023/10/06 23:57:59;;;;;;;2.17;1.40;;;;;;;4.43;69.02;98858.72;4892926;29;20041;-94
